createdAt,value
2022-08-18T00:01:17.014Z,3.88
2022-08-18T00:06:24.026Z,3.72
2022-08-18T00:11:40.425Z,3.58
2022-08-18T00:16:47.438Z,3.38
2022-08-18T00:21:52.313Z,3.15
2022-08-18T00:26:55.717Z,3.33
2022-08-18T00:31:59.788Z,3.75
2022-08-18T00:37:04.406Z,3.42
2022-08-18T00:42:27.664Z,3.38
2022-08-18T00:47:52.832Z,3.53
2022-08-18T00:53:02.313Z,3.58
2022-08-18T00:58:10.494Z,4.50
2022-08-18T01:03:24.542Z,4.60
2022-08-18T01:08:30.426Z,3.63
2022-08-18T01:13:34.933Z,3.72
2022-08-18T01:18:55.821Z,4.25
2022-08-18T01:24:03.333Z,4.20
2022-08-18T01:29:11.947Z,4.05
2022-08-18T01:34:24.916Z,3.80
2022-08-18T01:40:59.618Z,4.25
2022-08-18T01:44:53.142Z,3.70
2022-08-18T01:49:57.164Z,3.70
2022-08-18T01:55:01.853Z,3.65
2022-08-18T02:00:06.291Z,3.85
2022-08-18T02:05:18.490Z,3.80
2022-08-18T02:10:23.719Z,4.00
2022-08-18T02:15:28.280Z,3.35
2022-08-18T02:20:32.011Z,3.83
2022-08-18T02:25:36.770Z,3.42
2022-08-18T02:30:40.601Z,3.53
2022-08-18T02:35:44.121Z,4.05
2022-08-18T02:40:48.811Z,4.03
2022-08-18T02:45:52.098Z,3.55
2022-08-18T02:51:01.919Z,4.03
2022-08-18T02:56:33.733Z,3.90
2022-08-18T03:01:51.067Z,3.80
2022-08-18T03:06:55.414Z,4.43
2022-08-18T03:12:00.273Z,4.18
2022-08-18T03:17:05.588Z,4.18
2022-08-18T03:22:27.297Z,3.90
2022-08-18T03:27:33.241Z,4.30
2022-08-18T03:32:36.520Z,4.35
2022-08-18T03:37:40.287Z,3.88
2022-08-18T03:42:44.962Z,3.95
2022-08-18T03:47:50.187Z,4.85
2022-08-18T03:52:53.695Z,4.32
2022-08-18T03:58:03.629Z,3.67
2022-08-18T04:03:07.281Z,4.03
2022-08-18T04:08:10.536Z,4.13
2022-08-18T04:13:15.301Z,3.88
2022-08-18T04:18:23.004Z,4.47
2022-08-18T04:23:26.503Z,4.60
2022-08-18T04:28:32.822Z,4.35
2022-08-18T04:33:36.081Z,4.45
2022-08-18T04:38:42.017Z,4.13
2022-08-18T04:43:49.907Z,4.65
2022-08-18T04:48:58.681Z,4.28
2022-08-18T04:54:02.063Z,4.35
2022-08-18T04:59:08.862Z,4.50
2022-08-18T05:04:13.849Z,4.95
2022-08-18T05:09:22.738Z,4.60
2022-08-18T05:14:27.649Z,3.83
2022-08-18T05:19:31.864Z,3.58
2022-08-18T05:24:36.843Z,4.20
2022-08-18T05:29:45.755Z,4.03
2022-08-18T05:34:50.107Z,4.10
2022-08-18T05:39:59.382Z,3.92
2022-08-18T05:45:08.182Z,3.60
2022-08-18T05:50:16.485Z,3.35
2022-08-18T05:55:47.250Z,3.70
2022-08-18T06:00:59.680Z,3.85
2022-08-18T06:06:09.139Z,3.63
2022-08-18T06:11:22.684Z,3.40
2022-08-18T06:16:39.973Z,3.75
2022-08-18T06:21:51.993Z,3.40
2022-08-18T06:27:02.323Z,3.28
2022-08-18T06:32:15.721Z,3.45
2022-08-18T06:37:25.072Z,3.53
2022-08-18T06:42:31.022Z,3.67
2022-08-18T06:47:42.101Z,3.65
2022-08-18T06:52:54.232Z,3.53
2022-08-18T06:58:01.543Z,3.03
2022-08-18T07:03:12.531Z,4.50
2022-08-18T07:08:18.882Z,3.45
2022-08-18T07:13:26.743Z,5.13
2022-08-18T07:18:31.308Z,3.65
2022-08-18T07:23:38.424Z,3.90
2022-08-18T07:28:44.527Z,3.92
2022-08-18T07:33:56.705Z,3.95
2022-08-18T07:39:05.543Z,4.57
2022-08-18T07:44:20.891Z,4.22
2022-08-18T07:49:29.830Z,4.13
2022-08-18T07:54:50.176Z,3.92
2022-08-18T08:00:01.846Z,3.83
2022-08-18T08:05:15.159Z,4.13
2022-08-18T08:10:32.162Z,4.03
2022-08-18T08:15:44.490Z,4.53
2022-08-18T08:20:52.818Z,4.78
2022-08-18T08:26:19.967Z,4.40
2022-08-18T08:31:37.972Z,4.40
2022-08-18T08:36:45.583Z,4.18
2022-08-18T08:41:53.069Z,4.47
2022-08-18T08:47:06.068Z,5.03
2022-08-18T08:52:18.949Z,4.80
2022-08-18T08:57:28.555Z,5.00
2022-08-18T09:02:58.515Z,3.90
2022-08-18T09:08:35.824Z,4.00
2022-08-18T09:14:14.324Z,4.00
2022-08-18T09:19:35.964Z,4.05
2022-08-18T09:24:46.992Z,4.07
2022-08-18T09:29:54.011Z,4.30
2022-08-18T09:35:12.368Z,4.43
2022-08-18T09:46:04.516Z,4.72
2022-08-18T09:51:39.976Z,4.63
2022-08-18T09:57:24.452Z,4.85
2022-08-18T10:03:11.251Z,5.10
2022-08-18T10:08:37.482Z,5.30
2022-08-18T10:13:53.622Z,5.03
2022-08-18T10:19:09.304Z,5.30
2022-08-18T10:24:36.786Z,5.28
2022-08-18T10:29:56.560Z,5.60
2022-08-18T10:35:00.450Z,5.80
2022-08-18T10:40:06.916Z,5.47
2022-08-18T10:45:24.888Z,5.50
2022-08-18T10:50:31.590Z,4.90
2022-08-18T10:55:50.320Z,5.20
2022-08-18T11:01:10.784Z,4.60
2022-08-18T11:06:21.886Z,4.88
2022-08-18T11:11:39.890Z,4.57
2022-08-18T11:16:56.228Z,4.40
2022-08-18T11:22:01.695Z,5.15
2022-08-18T11:27:15.221Z,5.13
2022-08-18T11:32:25.304Z,5.25
2022-08-18T11:37:49.816Z,5.15
2022-08-18T11:43:01.662Z,5.55
2022-08-18T11:48:22.020Z,5.70
2022-08-18T11:53:44.104Z,6.78
2022-08-18T11:58:53.979Z,6.53
2022-08-18T12:03:59.718Z,6.88
2022-08-18T12:09:07.147Z,7.07
2022-08-18T12:19:43.922Z,6.35
2022-08-18T12:24:51.012Z,7.97
2022-08-18T12:29:57.500Z,6.20
2022-08-18T12:35:07.855Z,4.97
2022-08-18T12:40:13.775Z,5.30
2022-08-18T12:45:20.193Z,5.72
2022-08-18T12:50:30.852Z,5.90
2022-08-18T12:55:44.045Z,5.63
2022-08-18T13:00:49.190Z,5.95
2022-08-18T13:05:56.104Z,5.75
2022-08-18T13:11:14.783Z,6.68
2022-08-18T13:16:38.674Z,5.95
2022-08-18T13:21:52.404Z,6.47
2022-08-18T13:26:56.239Z,6.05
2022-08-18T13:31:59.765Z,6.10
2022-08-18T13:37:05.897Z,6.25
2022-08-18T13:42:26.634Z,6.28
2022-08-18T13:47:38.257Z,5.97
2022-08-18T13:52:44.787Z,6.30
2022-08-18T13:57:49.853Z,6.03
2022-08-18T14:02:53.808Z,6.20
2022-08-18T14:07:58.454Z,5.55
2022-08-18T14:13:09.403Z,5.95
2022-08-18T14:18:28.640Z,6.05
2022-08-18T14:24:02.831Z,5.57
2022-08-18T14:29:06.104Z,4.80
2022-08-18T14:34:14.494Z,5.80
2022-08-18T14:39:27.636Z,6.18
2022-08-18T14:44:32.749Z,5.47
2022-08-18T14:49:36.312Z,5.57
2022-08-18T14:54:52.904Z,6.05
2022-08-18T14:59:58.175Z,6.20
2022-08-18T15:05:01.428Z,5.80
2022-08-18T15:10:14.952Z,5.45
2022-08-18T15:15:22.598Z,5.28
2022-08-18T15:20:29.776Z,5.43
2022-08-18T15:25:45.685Z,5.50
2022-08-18T15:36:29.149Z,5.20
2022-08-18T15:41:44.706Z,5.55
2022-08-18T15:46:53.223Z,5.88
2022-08-18T15:51:56.729Z,5.47
2022-08-18T15:57:01.536Z,5.57
2022-08-18T16:02:11.424Z,5.57
2022-08-18T16:07:17.875Z,5.60
2022-08-18T16:12:31.513Z,4.97
2022-08-18T16:17:37.215Z,4.97
2022-08-18T16:22:42.635Z,5.28
2022-08-18T16:27:48.055Z,5.20
2022-08-18T16:32:52.529Z,5.60
2022-08-18T16:37:56.344Z,5.40
2022-08-18T16:43:01.535Z,5.20
2022-08-18T16:48:10.745Z,5.03
2022-08-18T16:53:15.184Z,5.03
2022-08-18T16:58:51.671Z,5.10
2022-08-18T17:04:13.555Z,5.10
2022-08-18T17:09:24.291Z,4.80
2022-08-18T17:14:32.123Z,5.03
2022-08-18T17:19:40.449Z,4.88
2022-08-18T17:24:49.825Z,4.63
2022-08-18T17:30:05.623Z,4.75
2022-08-18T17:35:14.189Z,4.35
2022-08-18T17:40:21.327Z,4.22
2022-08-18T17:45:26.106Z,4.70
2022-08-18T17:50:56.816Z,4.50
2022-08-18T17:56:03.256Z,4.53
2022-08-18T18:01:08.818Z,4.72
2022-08-18T18:06:19.658Z,4.93
2022-08-18T18:11:31.140Z,5.30
2022-08-18T18:16:40.191Z,5.70
2022-08-18T18:21:57.570Z,5.82
2022-08-18T18:27:25.709Z,6.90
2022-08-18T18:32:32.486Z,7.97
2022-08-18T18:37:47.120Z,8.30
2022-08-18T18:42:51.411Z,8.75
2022-08-18T18:48:45.243Z,6.03
2022-08-18T18:53:52.657Z,5.47
2022-08-18T18:59:17.812Z,6.90
2022-08-18T19:04:34.569Z,7.28
2022-08-18T19:09:47.327Z,6.55
2022-08-18T19:15:00.092Z,7.20
2022-08-18T19:20:09.478Z,7.18
2022-08-18T19:25:17.703Z,8.23
2022-08-18T19:30:22.625Z,10.48
2022-08-18T19:35:38.008Z,9.98
2022-08-18T19:40:48.060Z,9.68
2022-08-18T19:45:57.921Z,11.40
2022-08-18T19:51:12.424Z,10.25
2022-08-18T19:56:32.610Z,12.25
2022-08-18T20:01:56.716Z,10.18
2022-08-18T20:07:37.966Z,11.45
2022-08-18T20:13:03.238Z,12.23
2022-08-18T20:18:20.738Z,11.80
2022-08-18T20:23:37.687Z,12.68
2022-08-18T20:28:42.430Z,12.30
2022-08-18T20:33:54.311Z,13.38
2022-08-18T20:39:00.823Z,15.82
2022-08-18T20:44:38.037Z,16.58
2022-08-18T20:49:53.951Z,15.82
2022-08-18T20:55:11.671Z,15.77
2022-08-18T21:00:22.594Z,18.13
2022-08-18T21:05:35.673Z,16.52
2022-08-18T21:10:39.009Z,16.60
2022-08-18T21:15:44.307Z,15.77
2022-08-18T21:20:48.461Z,15.93
2022-08-18T21:25:54.535Z,15.27
2022-08-18T21:31:42.346Z,15.25
2022-08-18T21:36:31.743Z,14.82
2022-08-18T21:41:40.682Z,14.55
2022-08-18T21:46:46.924Z,14.02
2022-08-18T21:51:51.841Z,13.75
2022-08-18T21:57:23.167Z,14.02
2022-08-18T22:02:27.862Z,14.88
2022-08-18T22:07:35.568Z,14.75
2022-08-18T22:12:57.114Z,14.38
2022-08-18T22:18:05.399Z,13.55
2022-08-18T22:23:41.643Z,15.23
2022-08-18T22:28:52.633Z,13.90
2022-08-18T22:33:57.761Z,12.40
2022-08-18T22:39:01.809Z,13.32
2022-08-18T22:44:07.462Z,15.93
2022-08-18T22:49:12.137Z,16.73
2022-08-18T22:54:15.951Z,17.90
2022-08-18T22:59:21.614Z,17.67
2022-08-18T23:04:27.086Z,18.75
2022-08-18T23:09:32.543Z,17.77
2022-08-18T23:14:36.471Z,17.63
2022-08-18T23:19:41.655Z,17.90
2022-08-18T23:24:45.501Z,19.13
2022-08-18T23:29:48.861Z,18.88
2022-08-18T23:34:53.546Z,15.40
2022-08-18T23:39:56.813Z,18.58
2022-08-18T23:45:03.219Z,15.57
2022-08-18T23:50:08.919Z,18.17
2022-08-18T23:55:14.463Z,16.90
